Аэропорт: Внуково. Москва

ICAO: UUWW

METAR:
2020-10-19 23:00:00
UUWW 192300Z 23007MPS 9999 BKN017 02/M00 Q1009 R24/290050 NOSIG
METAR:
2020-10-19 19:56:00
TAF UUWW 191956Z 1921/2021 24005MPS 9999 BKN016 TX04/2012Z TN01/2001Z TEMPO 1921/2003 23008G15MPS 3100 -SHRASN FEW005 BKN016CB TEMPO 2003/2015 28009G15MPS 2100 -SHSNRA SCT004 BKN016CB BECMG 2015/2017 30005G12MPS